Inamorata — WDC8592 — position and weather

sailwx.info

Track history (hours):
 
Tides and Currents Weather Stations Pressure Air Temp Water Temp Dewpoint Dewpoint Depression Visibility Wind Speed Wind Dir Waves Ship Positions

Inamorata

Owner: McCormick, William R, Huntington Beach, CA. More information available from US FCC via Universal Licensing System and Coast Guard Vessel Documentation Center.

Last reported at 2018-Jun-17 17:27 UTC. Time now 2018-Jun-19 06:58 UTC.
Position N 33°43' W 118°03'.

Length 13 m.

Type: Pleasure craft. MMSI: 367089760.

Date/timePositionNaut miles runAvg speedWind from/ knotsBaromVisibWave heightAir tempDewpointWater temp
2018-Jun-17 17:27N 33°43' W 118°03'2 5.1
2018-Jun-17 16:59N 33°44' W 118°06'4 8.3
2018-Jun-17 16:30N 33°41' W 118°09'5 8.9
2018-Jun-17 15:59N 33°38' W 118°14'  
2018-Jun-14 16:42N 33°35' W 118°20'2 8.3
2018-Jun-14 16:26N 33°36' W 118°18'4 8.2
2018-Jun-14 15:58N 33°38' W 118°14'4 8.2
2018-Jun-14 15:30N 33°40' W 118°10'4 8.3
2018-Jun-14 15:00N 33°43' W 118°06'2 3.9
2018-Jun-14 14:30N 33°43' W 118°04'1 0.1
2018-Jun-14 08:45N 33°43' W 118°03'0 0.0
2018-Jun-12 19:37N 33°43' W 118°03'0 0.0
2018-Jun-12 15:46N 33°43' W 118°03'0 0.0
2018-Jun-12 15:25N 33°43' W 118°03'0 0.0
2018-Jun-12 05:44N 33°43' W 118°03'0 0.0
2018-Jun-12 05:29N 33°43' W 118°03'0 0.0
2018-Jun-12 04:56N 33°43' W 118°03'0 0.0
2018-Jun-12 04:20N 33°43' W 118°03'0 0.0
2018-Jun-12 03:56N 33°43' W 118°03'0 0.0
2018-Jun-12 03:20N 33°43' W 118°03'0 0.0
2018-Jun-12 02:50N 33°43' W 118°03'0 0.0
2018-Jun-12 02:20N 33°43' W 118°03'0 0.0
2018-Jun-12 01:53N 33°43' W 118°03'0 0.0
2018-Jun-12 01:29N 33°43' W 118°03'0 0.0
2018-Jun-12 00:41N 33°43' W 118°03'0 0.0
2018-Jun-12 00:26N 33°43' W 118°03'0 0.0
2018-Jun-11 23:41N 33°43' W 118°03'  
Track history (hours):
 
Tides and Currents Weather Stations Pressure Air Temp Water Temp Dewpoint Dewpoint Depression Visibility Wind Speed Wind Dir Waves Ship Positions

Inamorata

Owner: McCormick, William R, Huntington Beach, CA. More information available from US FCC via Universal Licensing System and Coast Guard Vessel Documentation Center.

Last reported at 2018-Jun-17 17:27 UTC. Time now 2018-Jun-19 06:58 UTC.
Position N 33°43' W 118°03'.

Length 13 m.

Type: Pleasure craft. MMSI: 367089760.

Date/timePositionNaut miles runAvg speedWind from/ knotsBaromVisibWave heightAir tempDewpointWater temp
2018-Jun-17 17:27N 33°43' W 118°03'2 5.1
2018-Jun-17 16:59N 33°44' W 118°06'4 8.3
2018-Jun-17 16:30N 33°41' W 118°09'5 8.9
2018-Jun-17 15:59N 33°38' W 118°14'  
2018-Jun-14 16:42N 33°35' W 118°20'2 8.3
2018-Jun-14 16:26N 33°36' W 118°18'4 8.2
2018-Jun-14 15:58N 33°38' W 118°14'4 8.2
2018-Jun-14 15:30N 33°40' W 118°10'4 8.3
2018-Jun-14 15:00N 33°43' W 118°06'2 3.9
2018-Jun-14 14:30N 33°43' W 118°04'1 0.1
2018-Jun-14 08:45N 33°43' W 118°03'0 0.0
2018-Jun-12 19:37N 33°43' W 118°03'0 0.0
2018-Jun-12 15:46N 33°43' W 118°03'0 0.0
2018-Jun-12 15:25N 33°43' W 118°03'0 0.0
2018-Jun-12 05:44N 33°43' W 118°03'0 0.0
2018-Jun-12 05:29N 33°43' W 118°03'0 0.0
2018-Jun-12 04:56N 33°43' W 118°03'0 0.0
2018-Jun-12 04:20N 33°43' W 118°03'0 0.0
2018-Jun-12 03:56N 33°43' W 118°03'0 0.0
2018-Jun-12 03:20N 33°43' W 118°03'0 0.0
2018-Jun-12 02:50N 33°43' W 118°03'0 0.0
2018-Jun-12 02:20N 33°43' W 118°03'0 0.0
2018-Jun-12 01:53N 33°43' W 118°03'0 0.0
2018-Jun-12 01:29N 33°43' W 118°03'0 0.0
2018-Jun-12 00:41N 33°43' W 118°03'0 0.0
2018-Jun-12 00:26N 33°43' W 118°03'0 0.0
2018-Jun-11 23:41N 33°43' W 118°03'  

Dump ship's entire track history